Garner, NC (27529)

9:43 AM EST on January 18, 2017 (GMT -0500)
Heather Hills | | Change Station
Active Advisory: Small Craft Advisory Active Notice: Public Information Statement

Elev 361 ft 35.70 °N, 78.62 °W | Updated 22 seconds ago

Mostly Cloudy
Mostly Cloudy
62.8 °F
Feels Like 62.8 °F
N
1.7
Wind Variable Wind from WSW
Gusts 2.7 mph

Today
High -- | Low -- °F
--% Chance of Precip.
Yesterday
High -- | Low -- °F
Precip. -- in
Pressure 29.96 in
Visibility 10.0 miles
Clouds Few 1400 ft
Mostly Cloudy 6500 ft
Mostly Cloudy 8500 ft
Mostly Cloudy 18000 ft
Mostly Cloudy 22000 ft
Dew Point 59 °F
Humidity 87%
Rainfall 0.00 in
Snow Depth Not available.
7:22 AM 5:27 PM
Waning Gibbous, 63% visible
METAR KRDU 181351Z 25006KT 10SM FEW014 BKN065 BKN085 BKN180 BKN220 17/14 A2997 RMK AO2 SLP146 T01670139
Pressure 29.96 in
Visibility 10.0 miles
Clouds Few 1400 ft
Mostly Cloudy 6500 ft
Mostly Cloudy 8500 ft
Mostly Cloudy 18000 ft
Mostly Cloudy 22000 ft
Dew Point 59 °F
Humidity 87%
Rainfall 0.00 in
Snow Depth Not available.
7:22 AM 5:27 PM
Waning Gibbous, 63% visible
METAR KRDU 181351Z 25006KT 10SM FEW014 BKN065 BKN085 BKN180 BKN220 17/14 A2997 RMK AO2 SLP146 T01670139

Get Your Daily Forecast Email!

Thanks for signing up!

Be on the lookout for a verification email in your inbox.

You'll start receiving the daily forecast at 8 AM.

×

10-Day Weather Forecast

Almanac

Astronomy

Jan. 18, 2017 Rise Set
Actual Time
Civil Twilight
Nautical Twilight
Astronomical Twilight
Moon
Length of Visible Light
Length of Day
Tomorrow will be .
, % of the Moon is Illuminated

Today's Extremes

State Highs State Lows

Community

WunderPhotos

Upload Photos

1,962,540 photos uploaded!

WunderBlog® & News

Nearby

Air Quality

  Air Quality AQ Index Pollutant
Not available.

Snow Depth

Station Depth Elevation

Earthquake Activity

City Distance Mag. Time & Date
Minimum magnitude displayed is 2.5.

Coastal Water Temperatures

Place Temperature

Stations

Nearby Weather Stations

Station Location Temp. Windchill Dew Point Humidity Wind Precip. Elev Updated Type
                   

Watches & Warnings

Small Craft Advisory
Issued: 3:52 AM EST Jan. 18, 2017 – National Weather Service

... Small Craft Advisory remains in effect until 5 PM EST this
afternoon...

* winds... west 15 to 25 kt.

* Seas... 3 to 6 feet.

Precautionary/preparedness actions...

A Small Craft Advisory means that wind speeds of 25 to 33 knots
and/or seas of 6 feet or greater are expected to produce
hazardous wave conditions to small craft. Inexperienced
mariners... especially those operating smaller vessels should
avoid navigating in these conditions.



11